sensor_id;sensor_type;location;lat;lon;timestamp;temperature;humidity
3055;DHT22;1537;52.018;8.542;2023-01-29T00:00:17;0.10;79.00
3055;DHT22;1537;52.018;8.542;2023-01-29T00:03:42;0.10;78.60
3055;DHT22;1537;52.018;8.542;2023-01-29T00:07:06;0.10;79.20
3055;DHT22;1537;52.018;8.542;2023-01-29T00:10:29;0.00;78.50
3055;DHT22;1537;52.018;8.542;2023-01-29T00:13:53;0.00;78.60
3055;DHT22;1537;52.018;8.542;2023-01-29T00:17:17;0.00;78.60
3055;DHT22;1537;52.018;8.542;2023-01-29T00:20:43;0.00;78.80
3055;DHT22;1537;52.018;8.542;2023-01-29T00:24:07;0.00;79.00
3055;DHT22;1537;52.018;8.542;2023-01-29T00:27:31;0.00;78.70
3055;DHT22;1537;52.018;8.542;2023-01-29T00:30:54;-0.10;79.20
3055;DHT22;1537;52.018;8.542;2023-01-29T00:34:18;-0.10;79.70
3055;DHT22;1537;52.018;8.542;2023-01-29T00:37:44;-0.10;79.10
3055;DHT22;1537;52.018;8.542;2023-01-29T00:41:09;-0.10;79.10
3055;DHT22;1537;52.018;8.542;2023-01-29T00:44:55;-0.10;79.30
3055;DHT22;1537;52.018;8.542;2023-01-29T00:48:21;-0.10;80.00
3055;DHT22;1537;52.018;8.542;2023-01-29T00:51:45;-0.10;79.30
3055;DHT22;1537;52.018;8.542;2023-01-29T00:55:31;-0.10;79.40
3055;DHT22;1537;52.018;8.542;2023-01-29T00:58:55;0.00;79.30
3055;DHT22;1537;52.018;8.542;2023-01-29T01:02:19;0.00;79.10
3055;DHT22;1537;52.018;8.542;2023-01-29T01:06:03;-0.10;79.30
3055;DHT22;1537;52.018;8.542;2023-01-29T01:09:27;-0.10;79.40
3055;DHT22;1537;52.018;8.542;2023-01-29T01:13:10;0.00;80.20
3055;DHT22;1537;52.018;8.542;2023-01-29T01:16:35;0.10;79.30
3055;DHT22;1537;52.018;8.542;2023-01-29T01:19:59;0.00;79.30
3055;DHT22;1537;52.018;8.542;2023-01-29T01:23:23;0.00;79.00
3055;DHT22;1537;52.018;8.542;2023-01-29T01:26:48;-0.10;79.30
3055;DHT22;1537;52.018;8.542;2023-01-29T01:30:14;-0.20;79.80
3055;DHT22;1537;52.018;8.542;2023-01-29T01:33:39;-0.20;80.40
3055;DHT22;1537;52.018;8.542;2023-01-29T01:37:03;-0.30;80.60
3055;DHT22;1537;52.018;8.542;2023-01-29T01:40:28;-0.50;80.90
3055;DHT22;1537;52.018;8.542;2023-01-29T01:43:54;-0.50;81.30
3055;DHT22;1537;52.018;8.542;2023-01-29T01:47:28;-0.50;81.20
3055;DHT22;1537;52.018;8.542;2023-01-29T01:50:56;-0.50;81.40
3055;DHT22;1537;52.018;8.542;2023-01-29T01:54:25;-0.60;81.50
3055;DHT22;1537;52.018;8.542;2023-01-29T01:57:54;-0.50;81.80
3055;DHT22;1537;52.018;8.542;2023-01-29T02:01:20;-0.60;81.80
3055;DHT22;1537;52.018;8.542;2023-01-29T02:04:50;-0.60;81.90
3055;DHT22;1537;52.018;8.542;2023-01-29T02:08:40;-0.60;82.20
3055;DHT22;1537;52.018;8.542;2023-01-29T02:12:24;-0.60;82.20
3055;DHT22;1537;52.018;8.542;2023-01-29T02:15:50;-0.60;83.10
3055;DHT22;1537;52.018;8.542;2023-01-29T02:19:21;-0.60;82.40
3055;DHT22;1537;52.018;8.542;2023-01-29T02:23:15;-0.60;82.50
3055;DHT22;1537;52.018;8.542;2023-01-29T02:26:52;-0.60;82.70
3055;DHT22;1537;52.018;8.542;2023-01-29T02:30:25;-0.60;82.70
3055;DHT22;1537;52.018;8.542;2023-01-29T02:33:59;-0.60;82.90
3055;DHT22;1537;52.018;8.542;2023-01-29T02:37:28;-0.60;82.80
3055;DHT22;1537;52.018;8.542;2023-01-29T02:40:56;-0.60;82.80
3055;DHT22;1537;52.018;8.542;2023-01-29T02:44:29;-0.70;83.10
3055;DHT22;1537;52.018;8.542;2023-01-29T02:48:00;-0.50;83.20
3055;DHT22;1537;52.018;8.542;2023-01-29T02:51:30;-0.50;82.80
3055;DHT22;1537;52.018;8.542;2023-01-29T02:55:01;-0.40;82.60
3055;DHT22;1537;52.018;8.542;2023-01-29T02:58:30;-0.50;82.40
3055;DHT22;1537;52.018;8.542;2023-01-29T03:01:59;-0.40;82.50
3055;DHT22;1537;52.018;8.542;2023-01-29T03:05:33;-0.50;82.50
3055;DHT22;1537;52.018;8.542;2023-01-29T03:09:01;-0.50;82.50
3055;DHT22;1537;52.018;8.542;2023-01-29T03:12:27;-0.50;82.80
3055;DHT22;1537;52.018;8.542;2023-01-29T03:16:02;-0.50;82.80
3055;DHT22;1537;52.018;8.542;2023-01-29T03:19:38;-0.40;82.70
3055;DHT22;1537;52.018;8.542;2023-01-29T03:23:19;-0.40;82.50
3055;DHT22;1537;52.018;8.542;2023-01-29T03:27:07;-0.40;82.40
3055;DHT22;1537;52.018;8.542;2023-01-29T03:30:53;-0.40;82.30
3055;DHT22;1537;52.018;8.542;2023-01-29T03:34:47;-0.40;82.60
3055;DHT22;1537;52.018;8.542;2023-01-29T03:38:16;-0.40;82.60
3055;DHT22;1537;52.018;8.542;2023-01-29T03:41:44;-0.50;82.60
3055;DHT22;1537;52.018;8.542;2023-01-29T03:45:15;-0.60;83.30
3055;DHT22;1537;52.018;8.542;2023-01-29T03:48:48;-0.60;83.10
3055;DHT22;1537;52.018;8.542;2023-01-29T03:52:17;-0.50;83.30
3055;DHT22;1537;52.018;8.542;2023-01-29T03:55:53;-0.60;83.20
3055;DHT22;1537;52.018;8.542;2023-01-29T03:59:30;-0.60;83.40
3055;DHT22;1537;52.018;8.542;2023-01-29T04:03:15;-0.60;84.20
3055;DHT22;1537;52.018;8.542;2023-01-29T04:06:45;-0.60;84.30
3055;DHT22;1537;52.018;8.542;2023-01-29T04:10:14;-0.50;83.30
3055;DHT22;1537;52.018;8.542;2023-01-29T04:13:41;-0.50;83.40
3055;DHT22;1537;52.018;8.542;2023-01-29T04:17:10;-0.50;83.20
3055;DHT22;1537;52.018;8.542;2023-01-29T04:20:55;-0.70;83.70
3055;DHT22;1537;52.018;8.542;2023-01-29T04:24:20;-0.70;84.00
3055;DHT22;1537;52.018;8.542;2023-01-29T04:27:54;-0.60;84.20
3055;DHT22;1537;52.018;8.542;2023-01-29T04:31:25;-0.60;83.90
3055;DHT22;1537;52.018;8.542;2023-01-29T04:34:59;-0.60;84.00
3055;DHT22;1537;52.018;8.542;2023-01-29T04:38:32;-0.60;83.90
3055;DHT22;1537;52.018;8.542;2023-01-29T04:42:04;-0.50;83.90
3055;DHT22;1537;52.018;8.542;2023-01-29T04:45:38;-0.50;83.70
3055;DHT22;1537;52.018;8.542;2023-01-29T04:49:16;-0.50;83.90
3055;DHT22;1537;52.018;8.542;2023-01-29T04:52:46;-0.50;83.70
3055;DHT22;1537;52.018;8.542;2023-01-29T04:56:18;-0.60;83.90
3055;DHT22;1537;52.018;8.542;2023-01-29T04:59:49;-0.60;84.20
3055;DHT22;1537;52.018;8.542;2023-01-29T05:03:15;-0.60;84.00
3055;DHT22;1537;52.018;8.542;2023-01-29T05:06:41;-0.60;84.20
3055;DHT22;1537;52.018;8.542;2023-01-29T05:10:07;-0.60;84.00
3055;DHT22;1537;52.018;8.542;2023-01-29T05:13:35;-0.50;84.10
3055;DHT22;1537;52.018;8.542;2023-01-29T05:17:06;-0.40;84.10
3055;DHT22;1537;52.018;8.542;2023-01-29T05:20:35;-0.40;83.70
3055;DHT22;1537;52.018;8.542;2023-01-29T05:24:10;-0.40;83.70
3055;DHT22;1537;52.018;8.542;2023-01-29T05:27:36;-0.40;84.00
3055;DHT22;1537;52.018;8.542;2023-01-29T05:31:17;-0.50;84.80
3055;DHT22;1537;52.018;8.542;2023-01-29T05:34:41;-0.60;85.10
3055;DHT22;1537;52.018;8.542;2023-01-29T05:38:05;-0.60;85.60
3055;DHT22;1537;52.018;8.542;2023-01-29T05:41:31;-0.60;85.40
3055;DHT22;1537;52.018;8.542;2023-01-29T05:44:55;-0.50;85.90
3055;DHT22;1537;52.018;8.542;2023-01-29T05:48:20;-0.50;86.20
3055;DHT22;1537;52.018;8.542;2023-01-29T05:51:44;-0.70;86.70
3055;DHT22;1537;52.018;8.542;2023-01-29T05:55:09;-0.80;87.50
3055;DHT22;1537;52.018;8.542;2023-01-29T05:58:35;-0.90;88.20
3055;DHT22;1537;52.018;8.542;2023-01-29T06:01:59;-0.80;88.60
3055;DHT22;1537;52.018;8.542;2023-01-29T06:05:23;-0.80;88.80
3055;DHT22;1537;52.018;8.542;2023-01-29T06:08:48;-0.90;88.70
3055;DHT22;1537;52.018;8.542;2023-01-29T06:12:12;-0.80;88.90
3055;DHT22;1537;52.018;8.542;2023-01-29T06:15:40;-0.80;89.30
3055;DHT22;1537;52.018;8.542;2023-01-29T06:19:04;-0.80;88.70
3055;DHT22;1537;52.018;8.542;2023-01-29T06:22:28;-0.70;88.80
3055;DHT22;1537;52.018;8.542;2023-01-29T06:25:52;-0.70;88.50
3055;DHT22;1537;52.018;8.542;2023-01-29T06:29:15;-0.70;88.30
3055;DHT22;1537;52.018;8.542;2023-01-29T06:32:41;-0.70;88.20
3055;DHT22;1537;52.018;8.542;2023-01-29T06:36:06;-0.70;88.00
3055;DHT22;1537;52.018;8.542;2023-01-29T06:39:32;-0.80;88.00
3055;DHT22;1537;52.018;8.542;2023-01-29T06:42:59;-0.70;88.20
3055;DHT22;1537;52.018;8.542;2023-01-29T06:46:25;-0.70;87.90
3055;DHT22;1537;52.018;8.542;2023-01-29T06:49:51;-0.60;87.70
3055;DHT22;1537;52.018;8.542;2023-01-29T06:53:16;-0.70;87.60
3055;DHT22;1537;52.018;8.542;2023-01-29T06:56:40;-0.70;87.70
3055;DHT22;1537;52.018;8.542;2023-01-29T07:00:05;-0.70;87.90
3055;DHT22;1537;52.018;8.542;2023-01-29T07:03:31;-0.70;87.80
3055;DHT22;1537;52.018;8.542;2023-01-29T07:06:58;-0.70;87.90
3055;DHT22;1537;52.018;8.542;2023-01-29T07:10:22;-0.70;88.00
3055;DHT22;1537;52.018;8.542;2023-01-29T07:13:48;-0.70;87.50
3055;DHT22;1537;52.018;8.542;2023-01-29T07:17:12;-0.70;87.60
3055;DHT22;1537;52.018;8.542;2023-01-29T07:20:37;-0.70;87.60
3055;DHT22;1537;52.018;8.542;2023-01-29T07:24:03;-0.60;87.60
3055;DHT22;1537;52.018;8.542;2023-01-29T07:27:28;-0.60;87.50
3055;DHT22;1537;52.018;8.542;2023-01-29T07:30:55;-0.50;88.10
3055;DHT22;1537;52.018;8.542;2023-01-29T07:34:21;-0.40;87.80
3055;DHT22;1537;52.018;8.542;2023-01-29T07:37:48;-0.30;86.60
3055;DHT22;1537;52.018;8.542;2023-01-29T07:41:14;-0.30;86.70
3055;DHT22;1537;52.018;8.542;2023-01-29T07:44:40;-0.50;87.00
3055;DHT22;1537;52.018;8.542;2023-01-29T07:48:05;-0.50;87.40
3055;DHT22;1537;52.018;8.542;2023-01-29T07:51:29;-0.50;87.70
3055;DHT22;1537;52.018;8.542;2023-01-29T07:54:53;-0.50;87.20
3055;DHT22;1537;52.018;8.542;2023-01-29T07:58:20;-0.50;87.30
3055;DHT22;1537;52.018;8.542;2023-01-29T08:01:44;-0.40;87.30
3055;DHT22;1537;52.018;8.542;2023-01-29T08:05:09;-0.40;87.20
3055;DHT22;1537;52.018;8.542;2023-01-29T08:08:34;-0.30;87.50
3055;DHT22;1537;52.018;8.542;2023-01-29T08:11:58;-0.40;86.80
3055;DHT22;1537;52.018;8.542;2023-01-29T08:15:23;-0.40;87.00
3055;DHT22;1537;52.018;8.542;2023-01-29T08:18:48;-0.30;87.20
3055;DHT22;1537;52.018;8.542;2023-01-29T08:22:11;-0.30;86.50
3055;DHT22;1537;52.018;8.542;2023-01-29T08:25:36;-0.20;86.30
3055;DHT22;1537;52.018;8.542;2023-01-29T08:29:00;-0.10;86.10
3055;DHT22;1537;52.018;8.542;2023-01-29T08:32:25;0.00;85.60
3055;DHT22;1537;52.018;8.542;2023-01-29T08:35:49;0.00;85.50
3055;DHT22;1537;52.018;8.542;2023-01-29T08:39:13;0.00;85.30
3055;DHT22;1537;52.018;8.542;2023-01-29T08:42:37;-0.10;85.20
3055;DHT22;1537;52.018;8.542;2023-01-29T08:46:05;-0.10;85.30
3055;DHT22;1537;52.018;8.542;2023-01-29T08:49:34;-0.10;85.30
3055;DHT22;1537;52.018;8.542;2023-01-29T08:52:58;-0.20;85.50
3055;DHT22;1537;52.018;8.542;2023-01-29T08:56:21;-0.20;85.90
3055;DHT22;1537;52.018;8.542;2023-01-29T08:59:45;-0.20;85.90
3055;DHT22;1537;52.018;8.542;2023-01-29T09:03:10;-0.20;85.80
3055;DHT22;1537;52.018;8.542;2023-01-29T09:06:35;-0.20;85.90
3055;DHT22;1537;52.018;8.542;2023-01-29T09:09:59;-0.10;85.90
3055;DHT22;1537;52.018;8.542;2023-01-29T09:13:22;0.40;85.60
3055;DHT22;1537;52.018;8.542;2023-01-29T09:16:46;0.70;82.90
3055;DHT22;1537;52.018;8.542;2023-01-29T09:20:10;0.60;82.80
3055;DHT22;1537;52.018;8.542;2023-01-29T09:23:35;0.60;82.70
3055;DHT22;1537;52.018;8.542;2023-01-29T09:26:59;0.50;83.20
3055;DHT22;1537;52.018;8.542;2023-01-29T09:30:23;0.50;83.40
3055;DHT22;1537;52.018;8.542;2023-01-29T09:33:47;0.40;83.40
3055;DHT22;1537;52.018;8.542;2023-01-29T09:37:13;0.30;84.00
3055;DHT22;1537;52.018;8.542;2023-01-29T09:40:49;0.30;84.30
3055;DHT22;1537;52.018;8.542;2023-01-29T09:44:18;0.60;83.50
3055;DHT22;1537;52.018;8.542;2023-01-29T09:47:46;1.00;82.60
3055;DHT22;1537;52.018;8.542;2023-01-29T09:51:17;1.10;81.70
3055;DHT22;1537;52.018;8.542;2023-01-29T09:54:49;1.10;81.60
3055;DHT22;1537;52.018;8.542;2023-01-29T09:58:24;1.10;81.10
3055;DHT22;1537;52.018;8.542;2023-01-29T10:01:58;1.00;81.20
3055;DHT22;1537;52.018;8.542;2023-01-29T10:05:36;0.90;81.50
3055;DHT22;1537;52.018;8.542;2023-01-29T10:09:32;0.90;81.80
3055;DHT22;1537;52.018;8.542;2023-01-29T10:13:17;0.90;82.20
3055;DHT22;1537;52.018;8.542;2023-01-29T10:16:52;1.00;82.60
3055;DHT22;1537;52.018;8.542;2023-01-29T10:20:33;1.40;80.90
3055;DHT22;1537;52.018;8.542;2023-01-29T10:24:08;1.30;80.10
3055;DHT22;1537;52.018;8.542;2023-01-29T10:27:38;1.20;81.30
3055;DHT22;1537;52.018;8.542;2023-01-29T10:31:04;1.30;80.60
3055;DHT22;1537;52.018;8.542;2023-01-29T10:34:35;1.40;80.40
3055;DHT22;1537;52.018;8.542;2023-01-29T10:38:12;1.50;80.70
3055;DHT22;1537;52.018;8.542;2023-01-29T10:41:53;1.60;79.60
3055;DHT22;1537;52.018;8.542;2023-01-29T10:45:25;1.40;80.30
3055;DHT22;1537;52.018;8.542;2023-01-29T10:49:02;1.10;81.00
3055;DHT22;1537;52.018;8.542;2023-01-29T10:52:37;1.10;81.80
3055;DHT22;1537;52.018;8.542;2023-01-29T10:56:14;1.20;81.80
3055;DHT22;1537;52.018;8.542;2023-01-29T10:59:54;1.10;81.80
3055;DHT22;1537;52.018;8.542;2023-01-29T11:03:22;1.20;82.10
3055;DHT22;1537;52.018;8.542;2023-01-29T11:06:50;1.40;81.50
3055;DHT22;1537;52.018;8.542;2023-01-29T11:10:16;1.50;81.30
3055;DHT22;1537;52.018;8.542;2023-01-29T11:13:48;1.50;81.20
3055;DHT22;1537;52.018;8.542;2023-01-29T11:17:16;1.50;81.50
3055;DHT22;1537;52.018;8.542;2023-01-29T11:20:42;1.50;80.90
3055;DHT22;1537;52.018;8.542;2023-01-29T11:24:11;1.50;81.60
3055;DHT22;1537;52.018;8.542;2023-01-29T11:27:43;1.40;81.70
3055;DHT22;1537;52.018;8.542;2023-01-29T11:31:22;1.50;82.00
3055;DHT22;1537;52.018;8.542;2023-01-29T11:34:58;1.60;81.70
3055;DHT22;1537;52.018;8.542;2023-01-29T11:38:24;1.60;81.50
3055;DHT22;1537;52.018;8.542;2023-01-29T11:41:51;1.80;81.50
3055;DHT22;1537;52.018;8.542;2023-01-29T11:45:27;1.90;80.70
3055;DHT22;1537;52.018;8.542;2023-01-29T11:48:51;1.90;80.90
3055;DHT22;1537;52.018;8.542;2023-01-29T11:52:33;2.00;80.70
3055;DHT22;1537;52.018;8.542;2023-01-29T11:55:57;2.00;80.50
3055;DHT22;1537;52.018;8.542;2023-01-29T11:59:28;1.90;80.90
3055;DHT22;1537;52.018;8.542;2023-01-29T12:02:56;1.80;81.70
3055;DHT22;1537;52.018;8.542;2023-01-29T12:06:30;1.90;81.80
3055;DHT22;1537;52.018;8.542;2023-01-29T12:09:56;2.00;81.40
3055;DHT22;1537;52.018;8.542;2023-01-29T12:13:26;2.10;80.90
3055;DHT22;1537;52.018;8.542;2023-01-29T12:16:53;2.10;80.30
3055;DHT22;1537;52.018;8.542;2023-01-29T12:20:24;2.20;80.50
3055;DHT22;1537;52.018;8.542;2023-01-29T12:23:55;2.10;80.00
3055;DHT22;1537;52.018;8.542;2023-01-29T12:27:24;2.20;79.80
3055;DHT22;1537;52.018;8.542;2023-01-29T12:31:03;2.20;79.90
3055;DHT22;1537;52.018;8.542;2023-01-29T12:34:35;2.20;79.80
3055;DHT22;1537;52.018;8.542;2023-01-29T12:38:11;2.30;79.90
3055;DHT22;1537;52.018;8.542;2023-01-29T12:41:40;2.30;79.50
3055;DHT22;1537;52.018;8.542;2023-01-29T12:45:09;2.40;79.50
3055;DHT22;1537;52.018;8.542;2023-01-29T12:48:41;2.30;79.10
3055;DHT22;1537;52.018;8.542;2023-01-29T12:52:10;2.30;79.00
3055;DHT22;1537;52.018;8.542;2023-01-29T12:55:41;2.30;79.40
3055;DHT22;1537;52.018;8.542;2023-01-29T12:59:14;2.40;78.90
3055;DHT22;1537;52.018;8.542;2023-01-29T13:02:44;2.50;78.90
3055;DHT22;1537;52.018;8.542;2023-01-29T13:06:13;2.40;78.40
3055;DHT22;1537;52.018;8.542;2023-01-29T13:09:42;2.30;79.00
3055;DHT22;1537;52.018;8.542;2023-01-29T13:13:13;2.30;79.00
3055;DHT22;1537;52.018;8.542;2023-01-29T13:16:41;2.30;79.10
3055;DHT22;1537;52.018;8.542;2023-01-29T13:20:13;2.40;79.20
3055;DHT22;1537;52.018;8.542;2023-01-29T13:23:42;2.50;78.60
3055;DHT22;1537;52.018;8.542;2023-01-29T13:27:20;2.50;78.20
3055;DHT22;1537;52.018;8.542;2023-01-29T13:30:45;2.50;78.40
3055;DHT22;1537;52.018;8.542;2023-01-29T13:34:13;2.50;78.40
3055;DHT22;1537;52.018;8.542;2023-01-29T13:37:41;2.30;78.80
3055;DHT22;1537;52.018;8.542;2023-01-29T13:41:09;2.20;79.40
3055;DHT22;1537;52.018;8.542;2023-01-29T13:44:36;2.40;79.30
3055;DHT22;1537;52.018;8.542;2023-01-29T13:48:10;2.40;78.90
3055;DHT22;1537;52.018;8.542;2023-01-29T13:51:40;2.50;79.30
3055;DHT22;1537;52.018;8.542;2023-01-29T13:55:07;2.40;79.20
3055;DHT22;1537;52.018;8.542;2023-01-29T13:58:52;2.30;78.80
3055;DHT22;1537;52.018;8.542;2023-01-29T14:02:24;2.40;78.90
3055;DHT22;1537;52.018;8.542;2023-01-29T14:05:58;2.40;78.90
3055;DHT22;1537;52.018;8.542;2023-01-29T14:13:35;2.50;78.70
3055;DHT22;1537;52.018;8.542;2023-01-29T14:17:01;2.40;78.70
3055;DHT22;1537;52.018;8.542;2023-01-29T14:20:29;2.40;78.80
3055;DHT22;1537;52.018;8.542;2023-01-29T14:24:15;2.30;78.80
3055;DHT22;1537;52.018;8.542;2023-01-29T14:27:46;2.30;79.40
3055;DHT22;1537;52.018;8.542;2023-01-29T14:31:10;2.30;79.20
3055;DHT22;1537;52.018;8.542;2023-01-29T14:34:35;2.30;79.70
3055;DHT22;1537;52.018;8.542;2023-01-29T14:38:05;2.20;80.00
3055;DHT22;1537;52.018;8.542;2023-01-29T14:41:32;2.10;79.60
3055;DHT22;1537;52.018;8.542;2023-01-29T14:44:58;2.20;80.10
3055;DHT22;1537;52.018;8.542;2023-01-29T14:48:36;2.20;79.60
3055;DHT22;1537;52.018;8.542;2023-01-29T14:52:01;2.20;79.00
3055;DHT22;1537;52.018;8.542;2023-01-29T14:55:28;2.20;79.10
3055;DHT22;1537;52.018;8.542;2023-01-29T14:58:56;2.20;79.20
3055;DHT22;1537;52.018;8.542;2023-01-29T15:02:25;2.20;79.20
3055;DHT22;1537;52.018;8.542;2023-01-29T15:05:56;2.20;79.30
3055;DHT22;1537;52.018;8.542;2023-01-29T15:09:30;2.20;79.60
3055;DHT22;1537;52.018;8.542;2023-01-29T15:13:00;2.30;79.50
3055;DHT22;1537;52.018;8.542;2023-01-29T15:16:31;2.20;80.20
3055;DHT22;1537;52.018;8.542;2023-01-29T15:19:57;2.20;80.50
3055;DHT22;1537;52.018;8.542;2023-01-29T15:23:25;2.10;80.30
3055;DHT22;1537;52.018;8.542;2023-01-29T15:26:48;2.10;80.50
3055;DHT22;1537;52.018;8.542;2023-01-29T15:30:15;2.10;80.70
3055;DHT22;1537;52.018;8.542;2023-01-29T15:33:44;2.10;80.30
3055;DHT22;1537;52.018;8.542;2023-01-29T15:37:23;2.00;80.80
3055;DHT22;1537;52.018;8.542;2023-01-29T15:40:51;2.00;80.90
3055;DHT22;1537;52.018;8.542;2023-01-29T15:44:18;1.90;81.50
3055;DHT22;1537;52.018;8.542;2023-01-29T15:47:42;1.90;81.40
3055;DHT22;1537;52.018;8.542;2023-01-29T15:51:12;1.90;82.50
3055;DHT22;1537;52.018;8.542;2023-01-29T15:54:38;1.90;81.70
3055;DHT22;1537;52.018;8.542;2023-01-29T15:58:02;1.90;81.80
3055;DHT22;1537;52.018;8.542;2023-01-29T16:01:26;1.90;82.00
3055;DHT22;1537;52.018;8.542;2023-01-29T16:04:51;1.90;82.30
3055;DHT22;1537;52.018;8.542;2023-01-29T16:08:17;1.80;82.90
3055;DHT22;1537;52.018;8.542;2023-01-29T16:11:43;1.80;82.70
3055;DHT22;1537;52.018;8.542;2023-01-29T16:15:14;1.80;83.00
3055;DHT22;1537;52.018;8.542;2023-01-29T16:18:41;1.80;83.00
3055;DHT22;1537;52.018;8.542;2023-01-29T16:22:20;1.80;83.10
3055;DHT22;1537;52.018;8.542;2023-01-29T16:25:46;1.80;83.00
3055;DHT22;1537;52.018;8.542;2023-01-29T16:29:13;1.80;83.50
3055;DHT22;1537;52.018;8.542;2023-01-29T16:32:38;1.80;83.70
3055;DHT22;1537;52.018;8.542;2023-01-29T16:36:02;1.70;83.70
3055;DHT22;1537;52.018;8.542;2023-01-29T16:39:30;1.80;83.90
3055;DHT22;1537;52.018;8.542;2023-01-29T16:46:55;1.70;83.80
3055;DHT22;1537;52.018;8.542;2023-01-29T16:50:24;1.70;83.80
3055;DHT22;1537;52.018;8.542;2023-01-29T16:54:02;1.70;83.70
3055;DHT22;1537;52.018;8.542;2023-01-29T16:57:31;1.70;83.50
3055;DHT22;1537;52.018;8.542;2023-01-29T17:01:00;1.70;83.30
3055;DHT22;1537;52.018;8.542;2023-01-29T17:04:24;1.70;83.30
3055;DHT22;1537;52.018;8.542;2023-01-29T17:07:48;1.70;83.30
3055;DHT22;1537;52.018;8.542;2023-01-29T17:11:23;1.70;83.10
3055;DHT22;1537;52.018;8.542;2023-01-29T17:14:52;1.70;83.10
3055;DHT22;1537;52.018;8.542;2023-01-29T17:18:19;1.70;83.10
3055;DHT22;1537;52.018;8.542;2023-01-29T17:21:43;1.70;83.00
3055;DHT22;1537;52.018;8.542;2023-01-29T17:25:08;1.80;83.00
3055;DHT22;1537;52.018;8.542;2023-01-29T17:28:33;1.70;83.10
3055;DHT22;1537;52.018;8.542;2023-01-29T17:31:57;1.70;83.00
3055;DHT22;1537;52.018;8.542;2023-01-29T17:35:23;1.80;83.10
3055;DHT22;1537;52.018;8.542;2023-01-29T17:38:47;1.80;82.80
3055;DHT22;1537;52.018;8.542;2023-01-29T17:42:12;1.80;83.40
3055;DHT22;1537;52.018;8.542;2023-01-29T17:45:36;1.80;84.00
3055;DHT22;1537;52.018;8.542;2023-01-29T17:49:01;1.80;85.50
3055;DHT22;1537;52.018;8.542;2023-01-29T17:52:29;1.80;86.80
3055;DHT22;1537;52.018;8.542;2023-01-29T17:55:53;1.80;86.20
3055;DHT22;1537;52.018;8.542;2023-01-29T17:59:19;1.80;87.20
3055;DHT22;1537;52.018;8.542;2023-01-29T18:02:43;1.70;88.80
3055;DHT22;1537;52.018;8.542;2023-01-29T18:06:08;1.60;90.10
3055;DHT22;1537;52.018;8.542;2023-01-29T18:09:33;1.50;90.80
3055;DHT22;1537;52.018;8.542;2023-01-29T18:12:57;1.40;91.40
3055;DHT22;1537;52.018;8.542;2023-01-29T18:16:21;1.30;91.80
3055;DHT22;1537;52.018;8.542;2023-01-29T18:19:46;1.30;92.20
3055;DHT22;1537;52.018;8.542;2023-01-29T18:23:11;1.30;92.40
3055;DHT22;1537;52.018;8.542;2023-01-29T18:26:41;1.30;92.70
3055;DHT22;1537;52.018;8.542;2023-01-29T18:30:05;1.20;92.80
3055;DHT22;1537;52.018;8.542;2023-01-29T18:33:29;1.20;92.80
3055;DHT22;1537;52.018;8.542;2023-01-29T18:36:57;1.20;93.00
3055;DHT22;1537;52.018;8.542;2023-01-29T18:40:21;1.30;93.20
3055;DHT22;1537;52.018;8.542;2023-01-29T18:43:46;1.30;93.30
3055;DHT22;1537;52.018;8.542;2023-01-29T18:47:10;1.30;93.20
3055;DHT22;1537;52.018;8.542;2023-01-29T18:50:35;1.20;93.10
3055;DHT22;1537;52.018;8.542;2023-01-29T18:53:59;1.20;93.10
3055;DHT22;1537;52.018;8.542;2023-01-29T18:57:23;1.20;93.30
3055;DHT22;1537;52.018;8.542;2023-01-29T19:01:09;1.20;93.30
3055;DHT22;1537;52.018;8.542;2023-01-29T19:04:35;1.30;93.40
3055;DHT22;1537;52.018;8.542;2023-01-29T19:07:59;1.20;93.40
3055;DHT22;1537;52.018;8.542;2023-01-29T19:11:23;1.30;93.50
3055;DHT22;1537;52.018;8.542;2023-01-29T19:14:47;1.20;93.50
3055;DHT22;1537;52.018;8.542;2023-01-29T19:18:13;1.20;93.50
3055;DHT22;1537;52.018;8.542;2023-01-29T19:21:37;1.20;93.70
3055;DHT22;1537;52.018;8.542;2023-01-29T19:25:01;1.30;93.70
3055;DHT22;1537;52.018;8.542;2023-01-29T19:28:25;1.30;93.60
3055;DHT22;1537;52.018;8.542;2023-01-29T19:31:49;1.30;93.40
3055;DHT22;1537;52.018;8.542;2023-01-29T19:35:16;1.30;93.50
3055;DHT22;1537;52.018;8.542;2023-01-29T19:38:41;1.30;93.30
3055;DHT22;1537;52.018;8.542;2023-01-29T19:42:05;1.30;93.40
3055;DHT22;1537;52.018;8.542;2023-01-29T19:45:29;1.40;93.30
3055;DHT22;1537;52.018;8.542;2023-01-29T19:49:11;1.40;93.40
3055;DHT22;1537;52.018;8.542;2023-01-29T19:52:37;1.50;93.60
3055;DHT22;1537;52.018;8.542;2023-01-29T19:56:14;1.50;93.20
3055;DHT22;1537;52.018;8.542;2023-01-29T19:59:38;1.50;93.00
3055;DHT22;1537;52.018;8.542;2023-01-29T20:03:02;1.60;93.10
3055;DHT22;1537;52.018;8.542;2023-01-29T20:06:28;1.60;92.90
3055;DHT22;1537;52.018;8.542;2023-01-29T20:09:53;1.60;92.80
3055;DHT22;1537;52.018;8.542;2023-01-29T20:13:17;1.60;92.70
3055;DHT22;1537;52.018;8.542;2023-01-29T20:16:41;1.70;92.80
3055;DHT22;1537;52.018;8.542;2023-01-29T20:20:06;1.60;92.70
3055;DHT22;1537;52.018;8.542;2023-01-29T20:23:30;1.60;92.80
3055;DHT22;1537;52.018;8.542;2023-01-29T20:27:01;1.60;92.90
3055;DHT22;1537;52.018;8.542;2023-01-29T20:30:25;1.60;92.90
3055;DHT22;1537;52.018;8.542;2023-01-29T20:33:48;1.70;93.00
3055;DHT22;1537;52.018;8.542;2023-01-29T20:37:12;1.70;92.90
3055;DHT22;1537;52.018;8.542;2023-01-29T20:40:36;1.70;92.70
3055;DHT22;1537;52.018;8.542;2023-01-29T20:44:01;1.70;92.70
3055;DHT22;1537;52.018;8.542;2023-01-29T20:47:25;1.70;92.60
3055;DHT22;1537;52.018;8.542;2023-01-29T20:50:49;1.70;92.70
3055;DHT22;1537;52.018;8.542;2023-01-29T20:54:13;1.70;92.70
3055;DHT22;1537;52.018;8.542;2023-01-29T20:57:40;1.80;92.60
3055;DHT22;1537;52.018;8.542;2023-01-29T21:01:08;1.80;92.60
3055;DHT22;1537;52.018;8.542;2023-01-29T21:04:32;1.80;92.50
3055;DHT22;1537;52.018;8.542;2023-01-29T21:07:58;1.80;92.50
3055;DHT22;1537;52.018;8.542;2023-01-29T21:11:22;1.80;92.50
3055;DHT22;1537;52.018;8.542;2023-01-29T21:14:45;1.90;92.70
3055;DHT22;1537;52.018;8.542;2023-01-29T21:18:11;1.90;92.50
3055;DHT22;1537;52.018;8.542;2023-01-29T21:21:34;1.90;92.40
3055;DHT22;1537;52.018;8.542;2023-01-29T21:25:00;1.90;92.30
3055;DHT22;1537;52.018;8.542;2023-01-29T21:28:24;1.90;92.40
3055;DHT22;1537;52.018;8.542;2023-01-29T21:31:48;2.00;92.40
3055;DHT22;1537;52.018;8.542;2023-01-29T21:35:14;2.00;92.30
3055;DHT22;1537;52.018;8.542;2023-01-29T21:38:38;2.00;92.30
3055;DHT22;1537;52.018;8.542;2023-01-29T21:42:03;2.00;92.20
3055;DHT22;1537;52.018;8.542;2023-01-29T21:45:44;2.00;92.10
3055;DHT22;1537;52.018;8.542;2023-01-29T21:49:08;2.10;92.20
3055;DHT22;1537;52.018;8.542;2023-01-29T21:52:34;2.10;92.30
3055;DHT22;1537;52.018;8.542;2023-01-29T21:55:58;2.00;92.20
3055;DHT22;1537;52.018;8.542;2023-01-29T21:59:22;2.10;92.30
3055;DHT22;1537;52.018;8.542;2023-01-29T22:02:46;2.10;92.30
3055;DHT22;1537;52.018;8.542;2023-01-29T22:06:13;2.10;92.20
3055;DHT22;1537;52.018;8.542;2023-01-29T22:09:38;2.10;92.30
3055;DHT22;1537;52.018;8.542;2023-01-29T22:13:05;2.20;92.60
3055;DHT22;1537;52.018;8.542;2023-01-29T22:16:29;2.20;92.20
3055;DHT22;1537;52.018;8.542;2023-01-29T22:19:53;2.20;92.10
3055;DHT22;1537;52.018;8.542;2023-01-29T22:23:17;2.30;92.10
3055;DHT22;1537;52.018;8.542;2023-01-29T22:26:45;2.30;92.10
3055;DHT22;1537;52.018;8.542;2023-01-29T22:30:12;2.30;92.00
3055;DHT22;1537;52.018;8.542;2023-01-29T22:33:38;2.30;92.10
3055;DHT22;1537;52.018;8.542;2023-01-29T22:37:04;2.30;92.00
3055;DHT22;1537;52.018;8.542;2023-01-29T22:40:30;2.30;92.00
3055;DHT22;1537;52.018;8.542;2023-01-29T22:43:55;2.30;92.10
3055;DHT22;1537;52.018;8.542;2023-01-29T22:47:19;2.40;92.20
3055;DHT22;1537;52.018;8.542;2023-01-29T22:50:43;2.40;92.10
3055;DHT22;1537;52.018;8.542;2023-01-29T22:54:14;2.40;92.10
3055;DHT22;1537;52.018;8.542;2023-01-29T22:57:38;2.50;92.20
3055;DHT22;1537;52.018;8.542;2023-01-29T23:01:03;2.50;92.20